sensor_id;sensor_type;location;lat;lon;timestamp;P1;durP1;ratioP1;P2;durP2;ratioP2
16922;SDS011;8578;50.938;13.556;2023-02-26T00:02:18;1.50;;;0.77;;
16922;SDS011;8578;50.938;13.556;2023-02-26T00:04:45;2.13;;;0.60;;
16922;SDS011;8578;50.938;13.556;2023-02-26T00:07:13;0.87;;;0.70;;
16922;SDS011;8578;50.938;13.556;2023-02-26T00:09:40;2.10;;;0.70;;
16922;SDS011;8578;50.938;13.556;2023-02-26T00:12:09;0.43;;;0.43;;
16922;SDS011;8578;50.938;13.556;2023-02-26T00:14:37;1.60;;;0.80;;
16922;SDS011;8578;50.938;13.556;2023-02-26T00:17:06;0.70;;;0.63;;
16922;SDS011;8578;50.938;13.556;2023-02-26T00:19:41;0.90;;;0.50;;
16922;SDS011;8578;50.938;13.556;2023-02-26T00:22:09;0.50;;;0.50;;
16922;SDS011;8578;50.938;13.556;2023-02-26T00:24:36;0.83;;;0.60;;
16922;SDS011;8578;50.938;13.556;2023-02-26T00:27:04;1.23;;;0.63;;
16922;SDS011;8578;50.938;13.556;2023-02-26T00:29:32;3.13;;;0.80;;
16922;SDS011;8578;50.938;13.556;2023-02-26T00:31:59;1.23;;;0.67;;
16922;SDS011;8578;50.938;13.556;2023-02-26T00:34:27;1.97;;;0.80;;
16922;SDS011;8578;50.938;13.556;2023-02-26T00:37:00;0.90;;;0.50;;
16922;SDS011;8578;50.938;13.556;2023-02-26T00:39:33;0.43;;;0.40;;
16922;SDS011;8578;50.938;13.556;2023-02-26T00:42:02;1.60;;;0.60;;
16922;SDS011;8578;50.938;13.556;2023-02-26T00:44:30;1.00;;;0.70;;
16922;SDS011;8578;50.938;13.556;2023-02-26T00:46:58;1.03;;;0.60;;
16922;SDS011;8578;50.938;13.556;2023-02-26T00:49:34;1.77;;;0.47;;
16922;SDS011;8578;50.938;13.556;2023-02-26T00:52:09;1.20;;;0.80;;
16922;SDS011;8578;50.938;13.556;2023-02-26T00:54:39;0.87;;;0.63;;
16922;SDS011;8578;50.938;13.556;2023-02-26T00:57:06;0.67;;;0.47;;
16922;SDS011;8578;50.938;13.556;2023-02-26T00:59:34;1.37;;;0.90;;
16922;SDS011;8578;50.938;13.556;2023-02-26T01:02:01;0.87;;;0.60;;
16922;SDS011;8578;50.938;13.556;2023-02-26T01:04:29;1.43;;;0.90;;
16922;SDS011;8578;50.938;13.556;2023-02-26T01:06:57;1.03;;;0.60;;
16922;SDS011;8578;50.938;13.556;2023-02-26T01:09:26;0.50;;;0.50;;
16922;SDS011;8578;50.938;13.556;2023-02-26T01:11:55;0.60;;;0.60;;
16922;SDS011;8578;50.938;13.556;2023-02-26T01:14:26;1.47;;;0.50;;
16922;SDS011;8578;50.938;13.556;2023-02-26T01:16:55;0.80;;;0.60;;
16922;SDS011;8578;50.938;13.556;2023-02-26T01:19:25;2.37;;;0.70;;
16922;SDS011;8578;50.938;13.556;2023-02-26T01:21:56;0.83;;;0.67;;
16922;SDS011;8578;50.938;13.556;2023-02-26T01:24:27;0.77;;;0.57;;
16922;SDS011;8578;50.938;13.556;2023-02-26T01:26:56;0.90;;;0.73;;
16922;SDS011;8578;50.938;13.556;2023-02-26T01:29:25;0.80;;;0.57;;
16922;SDS011;8578;50.938;13.556;2023-02-26T01:31:53;1.23;;;0.80;;
16922;SDS011;8578;50.938;13.556;2023-02-26T01:34:25;1.00;;;0.63;;
16922;SDS011;8578;50.938;13.556;2023-02-26T01:36:55;0.70;;;0.70;;
16922;SDS011;8578;50.938;13.556;2023-02-26T01:39:25;0.70;;;0.50;;
16922;SDS011;8578;50.938;13.556;2023-02-26T01:41:56;1.23;;;0.80;;
16922;SDS011;8578;50.938;13.556;2023-02-26T01:44:25;1.73;;;0.87;;
16922;SDS011;8578;50.938;13.556;2023-02-26T01:47:03;1.00;;;0.80;;
16922;SDS011;8578;50.938;13.556;2023-02-26T01:49:32;0.83;;;0.63;;
16922;SDS011;8578;50.938;13.556;2023-02-26T01:52:00;0.80;;;0.80;;
16922;SDS011;8578;50.938;13.556;2023-02-26T01:54:28;0.67;;;0.60;;
16922;SDS011;8578;50.938;13.556;2023-02-26T01:56:58;1.30;;;0.80;;
16922;SDS011;8578;50.938;13.556;2023-02-26T01:59:26;0.87;;;0.70;;
16922;SDS011;8578;50.938;13.556;2023-02-26T02:01:55;0.80;;;0.67;;
16922;SDS011;8578;50.938;13.556;2023-02-26T02:04:24;0.50;;;0.50;;
16922;SDS011;8578;50.938;13.556;2023-02-26T02:06:52;1.27;;;0.83;;
16922;SDS011;8578;50.938;13.556;2023-02-26T02:09:20;0.97;;;0.60;;
16922;SDS011;8578;50.938;13.556;2023-02-26T02:11:51;1.57;;;0.80;;
16922;SDS011;8578;50.938;13.556;2023-02-26T02:14:22;0.83;;;0.60;;
16922;SDS011;8578;50.938;13.556;2023-02-26T02:16:54;1.00;;;0.63;;
16922;SDS011;8578;50.938;13.556;2023-02-26T02:19:30;1.07;;;0.63;;
16922;SDS011;8578;50.938;13.556;2023-02-26T02:22:13;0.60;;;0.60;;
16922;SDS011;8578;50.938;13.556;2023-02-26T02:24:45;1.33;;;0.70;;
16922;SDS011;8578;50.938;13.556;2023-02-26T02:27:20;1.63;;;0.87;;
16922;SDS011;8578;50.938;13.556;2023-02-26T02:29:56;1.47;;;0.90;;
16922;SDS011;8578;50.938;13.556;2023-02-26T02:32:28;0.90;;;0.73;;
16922;SDS011;8578;50.938;13.556;2023-02-26T02:34:59;0.73;;;0.57;;
16922;SDS011;8578;50.938;13.556;2023-02-26T02:37:29;1.87;;;0.50;;
16922;SDS011;8578;50.938;13.556;2023-02-26T02:39:59;4.93;;;1.27;;
16922;SDS011;8578;50.938;13.556;2023-02-26T02:42:29;1.13;;;0.80;;
16922;SDS011;8578;50.938;13.556;2023-02-26T02:44:58;0.90;;;0.53;;
16922;SDS011;8578;50.938;13.556;2023-02-26T02:47:27;2.67;;;0.77;;
16922;SDS011;8578;50.938;13.556;2023-02-26T02:50:00;0.70;;;0.67;;
16922;SDS011;8578;50.938;13.556;2023-02-26T02:52:29;0.97;;;0.77;;
16922;SDS011;8578;50.938;13.556;2023-02-26T02:55:00;1.30;;;0.97;;
16922;SDS011;8578;50.938;13.556;2023-02-26T02:57:29;2.23;;;0.77;;
16922;SDS011;8578;50.938;13.556;2023-02-26T03:00:03;1.87;;;0.90;;
16922;SDS011;8578;50.938;13.556;2023-02-26T03:02:32;3.43;;;1.17;;
16922;SDS011;8578;50.938;13.556;2023-02-26T03:05:05;1.87;;;0.70;;
16922;SDS011;8578;50.938;13.556;2023-02-26T03:07:33;1.20;;;0.70;;
16922;SDS011;8578;50.938;13.556;2023-02-26T03:10:02;1.10;;;0.83;;
16922;SDS011;8578;50.938;13.556;2023-02-26T03:12:31;1.20;;;0.80;;
16922;SDS011;8578;50.938;13.556;2023-02-26T03:14:59;3.60;;;1.17;;
16922;SDS011;8578;50.938;13.556;2023-02-26T03:17:29;1.93;;;0.90;;
16922;SDS011;8578;50.938;13.556;2023-02-26T03:20:02;1.97;;;0.90;;
16922;SDS011;8578;50.938;13.556;2023-02-26T03:22:36;1.70;;;1.07;;
16922;SDS011;8578;50.938;13.556;2023-02-26T03:25:13;2.37;;;1.23;;
16922;SDS011;8578;50.938;13.556;2023-02-26T03:27:43;1.50;;;1.10;;
16922;SDS011;8578;50.938;13.556;2023-02-26T03:30:13;0.80;;;0.60;;
16922;SDS011;8578;50.938;13.556;2023-02-26T03:32:49;1.30;;;1.13;;
16922;SDS011;8578;50.938;13.556;2023-02-26T03:35:22;1.40;;;1.00;;
16922;SDS011;8578;50.938;13.556;2023-02-26T03:37:55;1.90;;;1.37;;
16922;SDS011;8578;50.938;13.556;2023-02-26T03:40:25;1.63;;;1.10;;
16922;SDS011;8578;50.938;13.556;2023-02-26T03:42:56;1.03;;;0.83;;
16922;SDS011;8578;50.938;13.556;2023-02-26T03:45:24;1.73;;;1.23;;
16922;SDS011;8578;50.938;13.556;2023-02-26T03:47:53;1.53;;;1.10;;
16922;SDS011;8578;50.938;13.556;2023-02-26T03:50:23;1.43;;;1.10;;
16922;SDS011;8578;50.938;13.556;2023-02-26T03:53:18;1.93;;;1.20;;
16922;SDS011;8578;50.938;13.556;2023-02-26T03:55:54;3.80;;;1.40;;
16922;SDS011;8578;50.938;13.556;2023-02-26T03:58:42;1.00;;;0.83;;
16922;SDS011;8578;50.938;13.556;2023-02-26T04:01:38;0.53;;;0.50;;
16922;SDS011;8578;50.938;13.556;2023-02-26T04:04:09;1.50;;;1.13;;
16922;SDS011;8578;50.938;13.556;2023-02-26T04:06:39;1.63;;;1.17;;
16922;SDS011;8578;50.938;13.556;2023-02-26T04:09:08;1.53;;;0.70;;
16922;SDS011;8578;50.938;13.556;2023-02-26T04:11:36;0.80;;;0.53;;
16922;SDS011;8578;50.938;13.556;2023-02-26T04:14:04;2.33;;;1.23;;
16922;SDS011;8578;50.938;13.556;2023-02-26T04:16:37;2.07;;;1.33;;
16922;SDS011;8578;50.938;13.556;2023-02-26T04:19:05;1.47;;;1.03;;
16922;SDS011;8578;50.938;13.556;2023-02-26T04:21:32;1.60;;;1.23;;
16922;SDS011;8578;50.938;13.556;2023-02-26T04:23:59;1.70;;;0.90;;
16922;SDS011;8578;50.938;13.556;2023-02-26T04:26:28;1.13;;;0.93;;
16922;SDS011;8578;50.938;13.556;2023-02-26T04:28:56;2.27;;;1.27;;
16922;SDS011;8578;50.938;13.556;2023-02-26T04:31:23;2.67;;;1.50;;
16922;SDS011;8578;50.938;13.556;2023-02-26T04:33:51;1.43;;;0.87;;
16922;SDS011;8578;50.938;13.556;2023-02-26T04:36:18;1.77;;;1.07;;
16922;SDS011;8578;50.938;13.556;2023-02-26T04:38:45;2.50;;;1.20;;
16922;SDS011;8578;50.938;13.556;2023-02-26T04:41:14;1.87;;;1.10;;
16922;SDS011;8578;50.938;13.556;2023-02-26T04:43:45;2.10;;;0.90;;
16922;SDS011;8578;50.938;13.556;2023-02-26T04:46:23;1.50;;;1.33;;
16922;SDS011;8578;50.938;13.556;2023-02-26T04:48:51;1.17;;;0.93;;
16922;SDS011;8578;50.938;13.556;2023-02-26T04:51:19;3.50;;;1.37;;
16922;SDS011;8578;50.938;13.556;2023-02-26T04:53:49;1.33;;;1.20;;
16922;SDS011;8578;50.938;13.556;2023-02-26T04:56:17;2.27;;;1.33;;
16922;SDS011;8578;50.938;13.556;2023-02-26T04:58:46;1.07;;;0.93;;
16922;SDS011;8578;50.938;13.556;2023-02-26T05:01:20;1.53;;;0.90;;
16922;SDS011;8578;50.938;13.556;2023-02-26T05:03:47;1.10;;;0.87;;
16922;SDS011;8578;50.938;13.556;2023-02-26T05:06:15;1.30;;;1.00;;
16922;SDS011;8578;50.938;13.556;2023-02-26T05:08:42;2.70;;;1.27;;
16922;SDS011;8578;50.938;13.556;2023-02-26T05:11:10;1.27;;;1.17;;
16922;SDS011;8578;50.938;13.556;2023-02-26T05:13:38;2.40;;;1.30;;
16922;SDS011;8578;50.938;13.556;2023-02-26T05:16:07;1.17;;;0.87;;
16922;SDS011;8578;50.938;13.556;2023-02-26T05:18:34;0.97;;;0.70;;
16922;SDS011;8578;50.938;13.556;2023-02-26T05:21:02;2.73;;;1.33;;
16922;SDS011;8578;50.938;13.556;2023-02-26T05:23:31;1.20;;;0.80;;
16922;SDS011;8578;50.938;13.556;2023-02-26T05:25:58;5.37;;;2.00;;
16922;SDS011;8578;50.938;13.556;2023-02-26T05:28:26;1.40;;;0.80;;
16922;SDS011;8578;50.938;13.556;2023-02-26T05:30:54;3.13;;;1.30;;
16922;SDS011;8578;50.938;13.556;2023-02-26T05:33:24;1.43;;;1.13;;
16922;SDS011;8578;50.938;13.556;2023-02-26T05:35:52;6.53;;;1.50;;
16922;SDS011;8578;50.938;13.556;2023-02-26T05:38:19;1.83;;;1.23;;
16922;SDS011;8578;50.938;13.556;2023-02-26T05:40:47;3.50;;;1.73;;
16922;SDS011;8578;50.938;13.556;2023-02-26T05:43:14;4.50;;;1.37;;
16922;SDS011;8578;50.938;13.556;2023-02-26T05:45:42;1.40;;;1.27;;
16922;SDS011;8578;50.938;13.556;2023-02-26T05:48:09;1.90;;;1.13;;
16922;SDS011;8578;50.938;13.556;2023-02-26T05:50:38;2.50;;;1.27;;
16922;SDS011;8578;50.938;13.556;2023-02-26T05:53:05;2.00;;;1.37;;
16922;SDS011;8578;50.938;13.556;2023-02-26T05:55:33;3.33;;;1.80;;
16922;SDS011;8578;50.938;13.556;2023-02-26T05:58:01;2.50;;;1.10;;
16922;SDS011;8578;50.938;13.556;2023-02-26T06:00:28;1.63;;;1.00;;
16922;SDS011;8578;50.938;13.556;2023-02-26T06:02:56;6.80;;;1.90;;
16922;SDS011;8578;50.938;13.556;2023-02-26T06:05:23;1.90;;;1.33;;
16922;SDS011;8578;50.938;13.556;2023-02-26T06:07:52;2.83;;;1.70;;
16922;SDS011;8578;50.938;13.556;2023-02-26T06:10:20;2.90;;;1.27;;
16922;SDS011;8578;50.938;13.556;2023-02-26T06:12:47;3.13;;;1.43;;
16922;SDS011;8578;50.938;13.556;2023-02-26T06:15:15;3.33;;;1.50;;
16922;SDS011;8578;50.938;13.556;2023-02-26T06:17:42;2.23;;;1.47;;
16922;SDS011;8578;50.938;13.556;2023-02-26T06:20:10;2.27;;;1.30;;
16922;SDS011;8578;50.938;13.556;2023-02-26T06:22:37;2.60;;;1.50;;
16922;SDS011;8578;50.938;13.556;2023-02-26T06:25:07;3.30;;;1.40;;
16922;SDS011;8578;50.938;13.556;2023-02-26T06:27:34;2.47;;;1.50;;
16922;SDS011;8578;50.938;13.556;2023-02-26T06:30:02;3.53;;;1.73;;
16922;SDS011;8578;50.938;13.556;2023-02-26T06:32:29;4.33;;;1.63;;
16922;SDS011;8578;50.938;13.556;2023-02-26T06:34:57;3.33;;;1.70;;
16922;SDS011;8578;50.938;13.556;2023-02-26T06:37:25;3.53;;;1.83;;
16922;SDS011;8578;50.938;13.556;2023-02-26T06:39:53;4.37;;;1.97;;
16922;SDS011;8578;50.938;13.556;2023-02-26T06:42:22;1.67;;;0.90;;
16922;SDS011;8578;50.938;13.556;2023-02-26T06:44:49;2.93;;;1.70;;
16922;SDS011;8578;50.938;13.556;2023-02-26T06:47:16;2.90;;;1.40;;
16922;SDS011;8578;50.938;13.556;2023-02-26T06:49:46;4.63;;;1.93;;
16922;SDS011;8578;50.938;13.556;2023-02-26T06:52:14;4.37;;;1.47;;
16922;SDS011;8578;50.938;13.556;2023-02-26T06:54:41;1.87;;;1.37;;
16922;SDS011;8578;50.938;13.556;2023-02-26T06:57:09;2.30;;;1.33;;
16922;SDS011;8578;50.938;13.556;2023-02-26T06:59:37;3.33;;;1.50;;
16922;SDS011;8578;50.938;13.556;2023-02-26T07:02:05;8.83;;;2.10;;
16922;SDS011;8578;50.938;13.556;2023-02-26T07:04:32;4.37;;;1.87;;
16922;SDS011;8578;50.938;13.556;2023-02-26T07:07:00;1.63;;;1.30;;
16922;SDS011;8578;50.938;13.556;2023-02-26T07:09:28;2.93;;;1.63;;
16922;SDS011;8578;50.938;13.556;2023-02-26T07:11:55;4.53;;;1.27;;
16922;SDS011;8578;50.938;13.556;2023-02-26T07:14:22;6.43;;;1.30;;
16922;SDS011;8578;50.938;13.556;2023-02-26T07:16:51;2.50;;;1.47;;
16922;SDS011;8578;50.938;13.556;2023-02-26T07:19:19;3.90;;;1.50;;
16922;SDS011;8578;50.938;13.556;2023-02-26T07:21:47;1.67;;;1.03;;
16922;SDS011;8578;50.938;13.556;2023-02-26T07:24:14;2.33;;;1.20;;
16922;SDS011;8578;50.938;13.556;2023-02-26T07:26:42;1.83;;;0.87;;
16922;SDS011;8578;50.938;13.556;2023-02-26T07:29:09;2.10;;;1.13;;
16922;SDS011;8578;50.938;13.556;2023-02-26T07:31:37;5.30;;;1.80;;
16922;SDS011;8578;50.938;13.556;2023-02-26T07:34:06;2.80;;;1.40;;
16922;SDS011;8578;50.938;13.556;2023-02-26T07:36:33;3.53;;;1.60;;
16922;SDS011;8578;50.938;13.556;2023-02-26T07:39:01;1.33;;;1.23;;
16922;SDS011;8578;50.938;13.556;2023-02-26T07:41:28;3.33;;;1.33;;
16922;SDS011;8578;50.938;13.556;2023-02-26T07:43:56;2.10;;;1.53;;
16922;SDS011;8578;50.938;13.556;2023-02-26T07:46:23;3.13;;;1.23;;
16922;SDS011;8578;50.938;13.556;2023-02-26T07:48:51;4.30;;;1.40;;
16922;SDS011;8578;50.938;13.556;2023-02-26T07:51:20;2.20;;;0.83;;
16922;SDS011;8578;50.938;13.556;2023-02-26T07:53:47;1.93;;;1.37;;
16922;SDS011;8578;50.938;13.556;2023-02-26T07:56:14;2.27;;;1.27;;
16922;SDS011;8578;50.938;13.556;2023-02-26T07:58:42;4.07;;;1.37;;
16922;SDS011;8578;50.938;13.556;2023-02-26T08:01:09;2.20;;;1.40;;
16922;SDS011;8578;50.938;13.556;2023-02-26T08:03:37;1.60;;;0.60;;
16922;SDS011;8578;50.938;13.556;2023-02-26T08:06:05;2.60;;;1.23;;
16922;SDS011;8578;50.938;13.556;2023-02-26T08:08:35;2.80;;;1.37;;
16922;SDS011;8578;50.938;13.556;2023-02-26T08:11:02;3.10;;;1.50;;
16922;SDS011;8578;50.938;13.556;2023-02-26T08:13:30;2.17;;;1.00;;
16922;SDS011;8578;50.938;13.556;2023-02-26T08:15:57;2.00;;;1.30;;
16922;SDS011;8578;50.938;13.556;2023-02-26T08:18:25;4.50;;;1.20;;
16922;SDS011;8578;50.938;13.556;2023-02-26T08:20:52;3.90;;;1.13;;
16922;SDS011;8578;50.938;13.556;2023-02-26T08:23:20;2.07;;;1.10;;
16922;SDS011;8578;50.938;13.556;2023-02-26T08:25:49;2.80;;;1.27;;
16922;SDS011;8578;50.938;13.556;2023-02-26T08:28:17;1.73;;;1.00;;
16922;SDS011;8578;50.938;13.556;2023-02-26T08:30:44;2.03;;;0.87;;
16922;SDS011;8578;50.938;13.556;2023-02-26T08:33:11;2.37;;;0.90;;
16922;SDS011;8578;50.938;13.556;2023-02-26T08:35:39;2.77;;;1.00;;
16922;SDS011;8578;50.938;13.556;2023-02-26T08:38:06;5.17;;;1.30;;
16922;SDS011;8578;50.938;13.556;2023-02-26T08:40:34;0.97;;;0.67;;
16922;SDS011;8578;50.938;13.556;2023-02-26T08:43:02;4.67;;;0.93;;
16922;SDS011;8578;50.938;13.556;2023-02-26T08:45:30;1.73;;;1.07;;
16922;SDS011;8578;50.938;13.556;2023-02-26T08:47:57;3.00;;;0.83;;
16922;SDS011;8578;50.938;13.556;2023-02-26T08:50:26;1.17;;;0.60;;
16922;SDS011;8578;50.938;13.556;2023-02-26T08:52:54;0.97;;;0.47;;
16922;SDS011;8578;50.938;13.556;2023-02-26T08:55:22;1.97;;;0.87;;
16922;SDS011;8578;50.938;13.556;2023-02-26T08:57:49;1.83;;;0.63;;
16922;SDS011;8578;50.938;13.556;2023-02-26T09:00:18;1.13;;;0.67;;
16922;SDS011;8578;50.938;13.556;2023-02-26T09:02:46;3.97;;;0.93;;
16922;SDS011;8578;50.938;13.556;2023-02-26T09:05:14;1.93;;;0.97;;
16922;SDS011;8578;50.938;13.556;2023-02-26T09:07:41;0.93;;;0.60;;
16922;SDS011;8578;50.938;13.556;2023-02-26T09:10:11;0.63;;;0.50;;
16922;SDS011;8578;50.938;13.556;2023-02-26T09:12:39;2.80;;;0.77;;
16922;SDS011;8578;50.938;13.556;2023-02-26T09:15:07;1.67;;;0.70;;
16922;SDS011;8578;50.938;13.556;2023-02-26T09:17:36;2.03;;;0.90;;
16922;SDS011;8578;50.938;13.556;2023-02-26T09:20:04;1.07;;;0.60;;
16922;SDS011;8578;50.938;13.556;2023-02-26T09:22:32;2.23;;;0.90;;
16922;SDS011;8578;50.938;13.556;2023-02-26T09:24:59;2.63;;;0.70;;
16922;SDS011;8578;50.938;13.556;2023-02-26T09:27:27;2.40;;;0.63;;
16922;SDS011;8578;50.938;13.556;2023-02-26T09:29:54;2.27;;;0.80;;
16922;SDS011;8578;50.938;13.556;2023-02-26T09:32:22;3.90;;;0.83;;
16922;SDS011;8578;50.938;13.556;2023-02-26T09:34:52;1.20;;;0.60;;
16922;SDS011;8578;50.938;13.556;2023-02-26T09:37:20;1.60;;;0.80;;
16922;SDS011;8578;50.938;13.556;2023-02-26T09:39:47;2.13;;;0.67;;
16922;SDS011;8578;50.938;13.556;2023-02-26T09:42:19;2.90;;;0.73;;
16922;SDS011;8578;50.938;13.556;2023-02-26T09:44:52;5.70;;;0.90;;
16922;SDS011;8578;50.938;13.556;2023-02-26T09:47:24;1.00;;;0.60;;
16922;SDS011;8578;50.938;13.556;2023-02-26T09:49:55;1.87;;;0.70;;
16922;SDS011;8578;50.938;13.556;2023-02-26T09:52:25;1.50;;;0.67;;
16922;SDS011;8578;50.938;13.556;2023-02-26T09:54:55;5.07;;;1.10;;
16922;SDS011;8578;50.938;13.556;2023-02-26T09:57:25;1.43;;;0.60;;
16922;SDS011;8578;50.938;13.556;2023-02-26T09:59:54;1.83;;;0.80;;
16922;SDS011;8578;50.938;13.556;2023-02-26T10:02:23;2.83;;;0.93;;
16922;SDS011;8578;50.938;13.556;2023-02-26T10:04:55;1.73;;;0.67;;
16922;SDS011;8578;50.938;13.556;2023-02-26T10:07:27;1.10;;;0.60;;
16922;SDS011;8578;50.938;13.556;2023-02-26T10:10:08;1.37;;;0.40;;
16922;SDS011;8578;50.938;13.556;2023-02-26T10:12:39;2.83;;;0.73;;
16922;SDS011;8578;50.938;13.556;2023-02-26T10:15:09;1.20;;;0.80;;
16922;SDS011;8578;50.938;13.556;2023-02-26T10:17:39;3.20;;;0.63;;
16922;SDS011;8578;50.938;13.556;2023-02-26T10:20:10;1.60;;;0.87;;
16922;SDS011;8578;50.938;13.556;2023-02-26T10:22:41;1.73;;;0.77;;
16922;SDS011;8578;50.938;13.556;2023-02-26T10:25:14;1.63;;;0.70;;
16922;SDS011;8578;50.938;13.556;2023-02-26T10:27:45;1.73;;;0.60;;
16922;SDS011;8578;50.938;13.556;2023-02-26T10:30:16;2.17;;;1.20;;
16922;SDS011;8578;50.938;13.556;2023-02-26T10:32:49;1.20;;;0.37;;
16922;SDS011;8578;50.938;13.556;2023-02-26T10:35:20;4.90;;;1.20;;
16922;SDS011;8578;50.938;13.556;2023-02-26T10:37:53;0.97;;;0.50;;
16922;SDS011;8578;50.938;13.556;2023-02-26T10:40:23;4.80;;;1.17;;
16922;SDS011;8578;50.938;13.556;2023-02-26T10:42:53;1.93;;;0.70;;
16922;SDS011;8578;50.938;13.556;2023-02-26T10:45:29;2.57;;;0.63;;
16922;SDS011;8578;50.938;13.556;2023-02-26T10:48:03;0.53;;;0.53;;
16922;SDS011;8578;50.938;13.556;2023-02-26T10:50:36;1.70;;;0.83;;
16922;SDS011;8578;50.938;13.556;2023-02-26T10:53:07;1.43;;;0.50;;
16922;SDS011;8578;50.938;13.556;2023-02-26T10:55:37;2.30;;;0.60;;
16922;SDS011;8578;50.938;13.556;2023-02-26T10:58:10;1.20;;;0.70;;
16922;SDS011;8578;50.938;13.556;2023-02-26T11:00:39;2.83;;;1.10;;
16922;SDS011;8578;50.938;13.556;2023-02-26T11:03:07;0.20;;;0.20;;
16922;SDS011;8578;50.938;13.556;2023-02-26T11:05:36;1.10;;;0.70;;
16922;SDS011;8578;50.938;13.556;2023-02-26T11:08:08;3.30;;;0.80;;
16922;SDS011;8578;50.938;13.556;2023-02-26T11:10:41;1.50;;;0.43;;
16922;SDS011;8578;50.938;13.556;2023-02-26T11:13:08;4.37;;;0.73;;
16922;SDS011;8578;50.938;13.556;2023-02-26T11:15:36;8.97;;;1.70;;
16922;SDS011;8578;50.938;13.556;2023-02-26T11:18:04;1.47;;;0.90;;
16922;SDS011;8578;50.938;13.556;2023-02-26T11:20:35;1.07;;;0.77;;
16922;SDS011;8578;50.938;13.556;2023-02-26T11:23:05;1.23;;;0.70;;
16922;SDS011;8578;50.938;13.556;2023-02-26T11:25:33;1.30;;;0.40;;
16922;SDS011;8578;50.938;13.556;2023-02-26T11:28:02;1.53;;;0.70;;
16922;SDS011;8578;50.938;13.556;2023-02-26T11:30:32;3.93;;;0.63;;
16922;SDS011;8578;50.938;13.556;2023-02-26T11:33:14;2.30;;;0.40;;
16922;SDS011;8578;50.938;13.556;2023-02-26T11:35:42;1.60;;;0.50;;
16922;SDS011;8578;50.938;13.556;2023-02-26T11:38:13;5.10;;;0.57;;
16922;SDS011;8578;50.938;13.556;2023-02-26T11:40:44;0.83;;;0.60;;
16922;SDS011;8578;50.938;13.556;2023-02-26T11:43:13;1.60;;;0.43;;
16922;SDS011;8578;50.938;13.556;2023-02-26T11:45:42;1.27;;;0.50;;
16922;SDS011;8578;50.938;13.556;2023-02-26T11:48:11;3.50;;;0.60;;
16922;SDS011;8578;50.938;13.556;2023-02-26T11:50:41;0.30;;;0.23;;
16922;SDS011;8578;50.938;13.556;2023-02-26T11:53:16;1.70;;;0.47;;
16922;SDS011;8578;50.938;13.556;2023-02-26T11:55:45;1.47;;;0.63;;
16922;SDS011;8578;50.938;13.556;2023-02-26T11:58:15;0.70;;;0.40;;
16922;SDS011;8578;50.938;13.556;2023-02-26T12:00:43;0.50;;;0.20;;
16922;SDS011;8578;50.938;13.556;2023-02-26T12:03:14;0.60;;;0.40;;
16922;SDS011;8578;50.938;13.556;2023-02-26T12:05:42;1.20;;;0.50;;
16922;SDS011;8578;50.938;13.556;2023-02-26T12:08:12;2.00;;;0.97;;
16922;SDS011;8578;50.938;13.556;2023-02-26T12:10:45;0.50;;;0.33;;
16922;SDS011;8578;50.938;13.556;2023-02-26T12:13:16;3.10;;;0.60;;
16922;SDS011;8578;50.938;13.556;2023-02-26T12:15:46;1.50;;;0.50;;
16922;SDS011;8578;50.938;13.556;2023-02-26T12:18:20;1.00;;;0.50;;
16922;SDS011;8578;50.938;13.556;2023-02-26T12:20:52;1.43;;;0.60;;
16922;SDS011;8578;50.938;13.556;2023-02-26T12:23:30;1.00;;;0.60;;
16922;SDS011;8578;50.938;13.556;2023-02-26T12:26:07;1.67;;;0.80;;
16922;SDS011;8578;50.938;13.556;2023-02-26T12:28:40;1.83;;;0.40;;
16922;SDS011;8578;50.938;13.556;2023-02-26T12:31:16;3.20;;;0.80;;
16922;SDS011;8578;50.938;13.556;2023-02-26T12:33:48;2.80;;;0.60;;
16922;SDS011;8578;50.938;13.556;2023-02-26T12:36:25;1.63;;;0.60;;
16922;SDS011;8578;50.938;13.556;2023-02-26T12:39:29;1.67;;;0.63;;
16922;SDS011;8578;50.938;13.556;2023-02-26T12:42:03;1.53;;;0.50;;
16922;SDS011;8578;50.938;13.556;2023-02-26T12:44:42;2.50;;;1.03;;
16922;SDS011;8578;50.938;13.556;2023-02-26T12:47:19;0.90;;;0.40;;
16922;SDS011;8578;50.938;13.556;2023-02-26T12:49:52;2.43;;;0.40;;
16922;SDS011;8578;50.938;13.556;2023-02-26T12:52:37;0.90;;;0.40;;
16922;SDS011;8578;50.938;13.556;2023-02-26T12:55:17;1.10;;;0.50;;
16922;SDS011;8578;50.938;13.556;2023-02-26T12:57:50;1.47;;;0.80;;
16922;SDS011;8578;50.938;13.556;2023-02-26T13:00:24;0.70;;;0.43;;
16922;SDS011;8578;50.938;13.556;2023-02-26T13:03:03;1.47;;;0.50;;
16922;SDS011;8578;50.938;13.556;2023-02-26T13:05:38;1.40;;;0.40;;
16922;SDS011;8578;50.938;13.556;2023-02-26T13:08:11;2.63;;;0.60;;
16922;SDS011;8578;50.938;13.556;2023-02-26T13:10:41;0.47;;;0.30;;
16922;SDS011;8578;50.938;13.556;2023-02-26T13:13:15;2.47;;;0.60;;
16922;SDS011;8578;50.938;13.556;2023-02-26T13:16:00;2.73;;;0.90;;
16922;SDS011;8578;50.938;13.556;2023-02-26T13:18:30;3.53;;;0.50;;
16922;SDS011;8578;50.938;13.556;2023-02-26T13:21:03;2.50;;;0.60;;
16922;SDS011;8578;50.938;13.556;2023-02-26T13:23:33;2.40;;;0.63;;
16922;SDS011;8578;50.938;13.556;2023-02-26T13:26:01;2.33;;;0.50;;
16922;SDS011;8578;50.938;13.556;2023-02-26T13:28:35;3.03;;;0.60;;
16922;SDS011;8578;50.938;13.556;2023-02-26T13:31:04;1.20;;;0.80;;
16922;SDS011;8578;50.938;13.556;2023-02-26T13:33:34;3.70;;;0.60;;
16922;SDS011;8578;50.938;13.556;2023-02-26T13:36:02;2.10;;;0.70;;
16922;SDS011;8578;50.938;13.556;2023-02-26T13:38:32;4.17;;;0.80;;
16922;SDS011;8578;50.938;13.556;2023-02-26T13:41:04;3.93;;;0.60;;
16922;SDS011;8578;50.938;13.556;2023-02-26T13:43:39;1.13;;;0.30;;
16922;SDS011;8578;50.938;13.556;2023-02-26T13:46:11;1.20;;;0.60;;
16922;SDS011;8578;50.938;13.556;2023-02-26T13:48:44;1.70;;;0.80;;
16922;SDS011;8578;50.938;13.556;2023-02-26T13:51:22;2.73;;;0.47;;
16922;SDS011;8578;50.938;13.556;2023-02-26T13:53:52;1.23;;;0.60;;
16922;SDS011;8578;50.938;13.556;2023-02-26T13:56:23;1.20;;;0.60;;
16922;SDS011;8578;50.938;13.556;2023-02-26T14:02:02;1.00;;;0.50;;
16922;SDS011;8578;50.938;13.556;2023-02-26T14:04:31;1.03;;;0.37;;
16922;SDS011;8578;50.938;13.556;2023-02-26T14:06:59;0.43;;;0.20;;
16922;SDS011;8578;50.938;13.556;2023-02-26T14:12:25;1.53;;;0.60;;
16922;SDS011;8578;50.938;13.556;2023-02-26T14:17:48;0.53;;;0.20;;
16922;SDS011;8578;50.938;13.556;2023-02-26T14:20:20;1.00;;;0.30;;
16922;SDS011;8578;50.938;13.556;2023-02-26T14:22:52;0.20;;;0.20;;
16922;SDS011;8578;50.938;13.556;2023-02-26T14:25:28;1.63;;;0.40;;
16922;SDS011;8578;50.938;13.556;2023-02-26T14:28:18;1.27;;;0.30;;
16922;SDS011;8578;50.938;13.556;2023-02-26T14:30:46;0.20;;;0.20;;
16922;SDS011;8578;50.938;13.556;2023-02-26T14:33:16;3.60;;;0.43;;
16922;SDS011;8578;50.938;13.556;2023-02-26T14:35:45;1.70;;;0.30;;
16922;SDS011;8578;50.938;13.556;2023-02-26T14:38:17;1.17;;;0.50;;
16922;SDS011;8578;50.938;13.556;2023-02-26T14:40:50;1.03;;;0.50;;
16922;SDS011;8578;50.938;13.556;2023-02-26T14:43:21;0.60;;;0.37;;
16922;SDS011;8578;50.938;13.556;2023-02-26T14:45:50;1.00;;;0.53;;
16922;SDS011;8578;50.938;13.556;2023-02-26T14:48:20;2.53;;;0.70;;
16922;SDS011;8578;50.938;13.556;2023-02-26T14:50:52;1.20;;;0.50;;
16922;SDS011;8578;50.938;13.556;2023-02-26T14:53:38;1.00;;;0.47;;
16922;SDS011;8578;50.938;13.556;2023-02-26T14:56:10;1.07;;;0.50;;
16922;SDS011;8578;50.938;13.556;2023-02-26T14:58:42;1.50;;;0.60;;
16922;SDS011;8578;50.938;13.556;2023-02-26T15:01:16;1.57;;;0.40;;
16922;SDS011;8578;50.938;13.556;2023-02-26T15:03:59;3.23;;;0.50;;
16922;SDS011;8578;50.938;13.556;2023-02-26T15:06:37;1.20;;;0.30;;
16922;SDS011;8578;50.938;13.556;2023-02-26T15:09:11;6.40;;;0.60;;
16922;SDS011;8578;50.938;13.556;2023-02-26T15:11:49;2.33;;;0.60;;
16922;SDS011;8578;50.938;13.556;2023-02-26T15:14:25;1.03;;;0.30;;
16922;SDS011;8578;50.938;13.556;2023-02-26T15:16:58;5.40;;;0.40;;